Time,TemperatureF,DewpointF,PressureIn,WindDirection,WindDirectionDegrees,WindSpeedMPH,WindSpeedGustMPH,Humidity,HourlyPrecipIn,Conditions,Clouds,dailyrainin,SoftwareType,DateUTC
2013-09-27 00:02:00,61.2,59.5,30.11,ENE,73,0.0,0.0,94,0.00,RA,,0.00,WeatherDisplay:10.37,2013-09-27 05:02:00,
2013-09-27 00:07:00,61.0,59.6,30.11,ENE,73,0.0,0.0,95,0.00,RA,,0.00,WeatherDisplay:10.37,2013-09-27 05:07:00,
2013-09-27 00:12:00,61.0,59.6,30.11,ENE,73,0.0,0.0,95,0.00,CLR,,0.00,WeatherDisplay:10.37,2013-09-27 05:12:00,
2013-09-27 00:17:00,60.9,59.5,30.11,ENE,73,0.0,0.0,95,0.00,CLR,,0.00,WeatherDisplay:10.37,2013-09-27 05:17:00,
2013-09-27 00:22:00,60.9,59.5,30.11,ENE,73,0.0,0.0,95,0.00,CLR,,0.00,WeatherDisplay:10.37,2013-09-27 05:22:00,
2013-09-27 00:27:00,60.7,59.3,30.11,ENE,73,0.0,0.0,95,0.00,CLR,,0.00,WeatherDisplay:10.37,2013-09-27 05:27:00,
2013-09-27 00:32:00,60.7,59.3,30.11,ENE,73,0.0,0.0,95,0.00,CLR,,0.00,WeatherDisplay:10.37,2013-09-27 05:32:00,
2013-09-27 00:37:00,60.5,59.1,30.11,ENE,73,0.0,0.0,95,0.00,CLR,,0.00,WeatherDisplay:10.37,2013-09-27 05:37:00,
2013-09-27 00:42:00,60.4,59.0,30.11,ENE,73,0.0,0.0,95,0.00,CLR,,0.00,WeatherDisplay:10.37,2013-09-27 05:42:00,
2013-09-27 00:47:00,60.4,59.0,30.11,ENE,73,0.0,0.0,95,0.00,CLR,,0.00,WeatherDisplay:10.37,2013-09-27 05:47:00,
2013-09-27 00:52:00,60.2,58.8,30.11,ENE,73,0.0,0.0,95,0.00,CLR,,0.00,WeatherDisplay:10.37,2013-09-27 05:52:00,
2013-09-27 00:57:00,60.2,58.8,30.11,ENE,73,0.0,0.0,95,0.00,CLR,,0.00,WeatherDisplay:10.37,2013-09-27 05:57:00,
2013-09-27 01:02:00,60.1,58.7,30.11,ENE,73,0.0,0.0,95,0.00,CLR,,0.00,WeatherDisplay:10.37,2013-09-27 06:02:00,
2013-09-27 01:07:00,60.1,58.7,30.11,ENE,73,0.0,0.0,95,0.00,CLR,,0.00,WeatherDisplay:10.37,2013-09-27 06:07:00,
2013-09-27 01:12:00,59.9,58.5,30.12,ENE,73,0.0,0.0,95,0.00,CLR,,0.00,WeatherDisplay:10.37,2013-09-27 06:12:00,
2013-09-27 01:17:00,59.9,58.5,30.12,ENE,73,0.0,0.0,95,0.00,CLR,,0.00,WeatherDisplay:10.37,2013-09-27 06:17:00,
2013-09-27 01:22:00,59.8,58.4,30.12,ENE,73,0.0,0.0,95,0.00,CLR,,0.00,WeatherDisplay:10.37,2013-09-27 06:22:00,
2013-09-27 01:27:00,59.6,58.2,30.12,ENE,73,0.0,0.0,95,0.00,CLR,,0.00,WeatherDisplay:10.37,2013-09-27 06:27:00,
2013-09-27 01:32:00,59.6,58.5,30.12,ENE,73,0.0,0.0,96,0.00,CLR,,0.00,WeatherDisplay:10.37,2013-09-27 06:32:00,
2013-09-27 01:37:00,59.5,58.4,30.12,ENE,73,0.0,0.0,96,0.00,CLR,,0.00,WeatherDisplay:10.37,2013-09-27 06:37:00,
2013-09-27 01:42:00,59.5,58.4,30.12,ENE,73,0.0,0.0,96,0.00,CLR,,0.00,WeatherDisplay:10.37,2013-09-27 06:42:00,
2013-09-27 01:47:00,59.3,58.2,30.12,ENE,73,0.0,0.0,96,0.00,CLR,,0.00,WeatherDisplay:10.37,2013-09-27 06:47:00,
2013-09-27 01:52:00,59.3,58.2,30.12,ENE,73,0.0,0.0,96,0.00,CLR,,0.00,WeatherDisplay:10.37,2013-09-27 06:52:00,
2013-09-27 01:57:00,59.2,58.1,30.12,ENE,73,0.0,0.0,96,0.00,CLR,,0.00,WeatherDisplay:10.37,2013-09-27 06:57:00,
2013-09-27 02:02:00,59.2,58.1,30.12,ENE,73,0.0,0.0,96,0.00,CLR,,0.00,WeatherDisplay:10.37,2013-09-27 07:02:00,
2013-09-27 02:07:00,59.0,57.9,30.11,ENE,73,0.0,0.0,96,0.00,CLR,,0.00,WeatherDisplay:10.37,2013-09-27 07:07:00,
2013-09-27 02:12:00,59.0,57.9,30.12,ENE,73,0.0,0.0,96,0.00,CLR,,0.00,WeatherDisplay:10.37,2013-09-27 07:12:00,
2013-09-27 02:17:00,59.0,57.9,30.11,ENE,73,0.0,0.0,96,0.00,CLR,,0.00,WeatherDisplay:10.37,2013-09-27 07:17:00,
2013-09-27 02:22:00,58.9,57.8,30.11,ENE,73,0.0,0.0,96,0.00,CLR,,0.00,WeatherDisplay:10.37,2013-09-27 07:22:00,
2013-09-27 02:27:00,58.9,57.8,30.11,ENE,73,0.0,0.0,96,0.00,CLR,,0.00,WeatherDisplay:10.37,2013-09-27 07:27:00,
2013-09-27 02:32:00,58.9,57.8,30.11,ENE,73,0.0,0.0,96,0.00,CLR,,0.00,WeatherDisplay:10.37,2013-09-27 07:32:00,
2013-09-27 02:38:00,58.7,57.6,30.11,ENE,73,0.0,0.0,96,0.00,CLR,,0.00,WeatherDisplay:10.37,2013-09-27 07:38:00,
2013-09-27 02:43:00,58.7,57.6,30.11,ENE,73,0.0,0.0,96,0.00,CLR,,0.00,WeatherDisplay:10.37,2013-09-27 07:43:00,
2013-09-27 02:48:00,58.6,57.5,30.12,ENE,73,0.0,0.0,96,0.00,CLR,,0.00,WeatherDisplay:10.37,2013-09-27 07:48:00,
2013-09-27 02:49:00,58.6,57.5,30.12,ENE,73,0.0,0.0,96,0.00,CLR,,0.00,WeatherDisplay:10.37,2013-09-27 07:49:00,
2013-09-27 02:54:00,58.4,57.3,30.12,ENE,73,0.0,0.0,96,0.00,CLR,,0.00,WeatherDisplay:10.37,2013-09-27 07:54:00,
2013-09-27 02:59:00,58.4,57.3,30.11,ENE,73,0.0,0.0,96,0.00,CLR,,0.00,WeatherDisplay:10.37,2013-09-27 07:59:00,
2013-09-27 03:04:00,58.4,57.3,30.11,ENE,73,0.0,0.0,96,0.00,CLR,,0.00,WeatherDisplay:10.37,2013-09-27 08:04:00,
2013-09-27 03:09:00,58.3,57.2,30.11,ENE,73,0.0,0.0,96,0.00,CLR,,0.00,WeatherDisplay:10.37,2013-09-27 08:09:00,
2013-09-27 03:14:00,58.1,57.0,30.11,ENE,73,0.0,0.0,96,0.00,CLR,,0.00,WeatherDisplay:10.37,2013-09-27 08:14:00,
2013-09-27 03:19:00,58.0,56.9,30.12,ENE,73,0.0,0.0,96,0.00,CLR,,0.00,WeatherDisplay:10.37,2013-09-27 08:19:00,
2013-09-27 03:24:00,58.0,56.9,30.12,ENE,73,0.0,0.0,96,0.00,CLR,,0.00,WeatherDisplay:10.37,2013-09-27 08:24:00,
2013-09-27 03:29:00,58.0,56.9,30.12,ENE,73,0.0,0.0,96,0.00,CLR,,0.00,WeatherDisplay:10.37,2013-09-27 08:29:00,
2013-09-27 03:34:00,57.8,56.7,30.12,ENE,73,0.0,0.0,96,0.00,CLR,,0.00,WeatherDisplay:10.37,2013-09-27 08:34:00,
2013-09-27 03:39:00,57.8,56.7,30.12,ENE,73,0.0,0.0,96,0.00,CLR,,0.00,WeatherDisplay:10.37,2013-09-27 08:39:00,
2013-09-27 03:44:00,57.8,56.7,30.12,ENE,73,0.0,0.0,96,0.00,CLR,,0.00,WeatherDisplay:10.37,2013-09-27 08:44:00,
2013-09-27 03:49:00,57.6,56.5,30.12,ENE,73,0.0,0.0,96,0.00,CLR,,0.00,WeatherDisplay:10.37,2013-09-27 08:49:00,
2013-09-27 03:54:00,57.8,56.7,30.12,ENE,73,0.0,0.0,96,0.00,CLR,,0.00,WeatherDisplay:10.37,2013-09-27 08:54:00,
2013-09-27 03:59:00,57.8,56.7,30.12,ENE,73,0.0,0.0,96,0.00,CLR,,0.00,WeatherDisplay:10.37,2013-09-27 08:59:00,
2013-09-27 04:04:00,58.0,57.2,30.12,ENE,73,0.0,0.0,97,0.00,CLR,,0.00,WeatherDisplay:10.37,2013-09-27 09:04:00,
2013-09-27 04:09:00,58.0,57.2,30.13,ENE,73,0.0,0.0,97,0.00,CLR,,0.00,WeatherDisplay:10.37,2013-09-27 09:09:00,
2013-09-27 04:14:00,58.0,57.2,30.13,ENE,73,0.0,0.0,97,0.00,CLR,,0.00,WeatherDisplay:10.37,2013-09-27 09:14:00,
2013-09-27 04:19:00,58.0,57.2,30.13,ENE,73,0.0,0.0,97,0.00,CLR,,0.00,WeatherDisplay:10.37,2013-09-27 09:19:00,
2013-09-27 04:24:00,57.8,57.0,30.13,ENE,73,0.0,0.0,97,0.00,CLR,,0.00,WeatherDisplay:10.37,2013-09-27 09:24:00,
2013-09-27 04:29:00,57.8,57.0,30.14,ENE,73,0.0,0.0,97,0.00,CLR,,0.00,WeatherDisplay:10.37,2013-09-27 09:29:00,
2013-09-27 04:34:00,57.6,56.8,30.14,ENE,73,0.0,0.0,97,0.00,CLR,,0.00,WeatherDisplay:10.37,2013-09-27 09:34:00,
2013-09-27 04:39:00,57.5,56.7,30.14,ENE,73,0.0,0.0,97,0.00,CLR,,0.00,WeatherDisplay:10.37,2013-09-27 09:39:00,
2013-09-27 04:44:00,57.5,56.7,30.14,ENE,73,0.0,0.0,97,0.00,CLR,,0.00,WeatherDisplay:10.37,2013-09-27 09:44:00,
2013-09-27 04:49:00,57.3,56.5,30.14,ENE,73,0.0,0.0,97,0.00,CLR,,0.00,WeatherDisplay:10.37,2013-09-27 09:49:00,
2013-09-27 04:54:00,57.5,56.7,30.14,ENE,73,0.0,0.0,97,0.00,CLR,,0.00,WeatherDisplay:10.37,2013-09-27 09:54:00,
2013-09-27 04:59:00,57.5,56.7,30.15,ENE,73,0.0,0.0,97,0.00,CLR,,0.00,WeatherDisplay:10.37,2013-09-27 09:59:00,
2013-09-27 05:04:00,57.5,56.7,30.15,ENE,73,0.0,0.0,97,0.00,CLR,,0.00,WeatherDisplay:10.37,2013-09-27 10:04:00,
2013-09-27 05:09:00,57.3,56.5,30.15,ENE,73,0.0,0.0,97,0.00,CLR,,0.00,WeatherDisplay:10.37,2013-09-27 10:09:00,
2013-09-27 05:14:00,57.2,56.4,30.15,ENE,73,0.0,0.0,97,0.00,CLR,,0.00,WeatherDisplay:10.37,2013-09-27 10:14:00,
2013-09-27 05:19:00,57.2,56.4,30.16,ENE,73,0.0,0.0,97,0.00,CLR,,0.00,WeatherDisplay:10.37,2013-09-27 10:19:00,
2013-09-27 05:24:00,57.0,56.2,30.16,ENE,73,0.0,0.0,97,0.00,CLR,,0.00,WeatherDisplay:10.37,2013-09-27 10:24:00,
2013-09-27 05:29:00,57.0,56.2,30.16,ENE,73,0.0,0.0,97,0.00,CLR,,0.00,WeatherDisplay:10.37,2013-09-27 10:29:00,
2013-09-27 05:34:00,56.9,56.1,30.16,ENE,73,0.0,0.0,97,0.00,CLR,,0.00,WeatherDisplay:10.37,2013-09-27 10:34:00,
2013-09-27 05:39:00,56.9,56.1,30.16,ENE,73,0.0,0.0,97,0.00,CLR,,0.00,WeatherDisplay:10.37,2013-09-27 10:39:00,
2013-09-27 05:44:00,57.0,56.2,30.17,ENE,73,0.0,0.0,97,0.00,CLR,,0.00,WeatherDisplay:10.37,2013-09-27 10:44:00,
2013-09-27 05:49:00,57.0,56.2,30.17,ENE,73,0.0,0.0,97,0.00,CLR,,0.00,WeatherDisplay:10.37,2013-09-27 10:49:00,
2013-09-27 05:54:00,57.0,56.2,30.17,ENE,73,0.0,0.0,97,0.00,CLR,,0.00,WeatherDisplay:10.37,2013-09-27 10:54:00,
2013-09-27 05:59:00,57.0,56.2,30.18,ENE,73,0.0,0.0,97,0.00,CLR,,0.00,WeatherDisplay:10.37,2013-09-27 10:59:00,
2013-09-27 06:04:00,56.9,56.1,30.18,ENE,73,0.0,0.0,97,0.00,CLR,,0.00,WeatherDisplay:10.37,2013-09-27 11:04:00,
2013-09-27 06:09:00,56.9,56.1,30.18,ENE,73,0.0,0.0,97,0.00,CLR,,0.00,WeatherDisplay:10.37,2013-09-27 11:09:00,
2013-09-27 06:14:00,56.9,56.1,30.18,ENE,73,0.0,0.0,97,0.00,CLR,,0.00,WeatherDisplay:10.37,2013-09-27 11:14:00,
2013-09-27 06:19:00,56.9,56.1,30.19,ENE,73,0.0,0.0,97,0.00,CLR,,0.00,WeatherDisplay:10.37,2013-09-27 11:19:00,
2013-09-27 06:24:00,56.7,55.9,30.19,ENE,73,0.0,0.0,97,0.00,CLR,,0.00,WeatherDisplay:10.37,2013-09-27 11:24:00,
2013-09-27 06:29:00,56.7,55.9,30.19,ENE,73,0.0,0.0,97,0.00,CLR,,0.00,WeatherDisplay:10.37,2013-09-27 11:29:00,
2013-09-27 06:34:00,56.6,55.8,30.19,ENE,73,0.0,0.0,97,0.00,CLR,,0.00,WeatherDisplay:10.37,2013-09-27 11:34:00,
2013-09-27 06:39:00,56.5,55.7,30.20,ENE,73,0.0,0.0,97,0.00,CLR,,0.00,WeatherDisplay:10.37,2013-09-27 11:39:00,
2013-09-27 06:44:00,56.5,55.7,30.20,ENE,73,0.0,0.0,97,0.00,CLR,,0.00,WeatherDisplay:10.37,2013-09-27 11:44:00,
2013-09-27 06:49:00,56.3,55.5,30.20,ENE,73,0.0,0.0,97,0.00,CLR,,0.00,WeatherDisplay:10.37,2013-09-27 11:49:00,
2013-09-27 06:54:00,56.3,55.5,30.20,ENE,73,0.0,0.0,97,0.00,CLR,,0.00,WeatherDisplay:10.37,2013-09-27 11:54:00,
2013-09-27 06:59:00,56.3,55.5,30.21,ENE,73,0.0,0.0,97,0.00,CLR,,0.00,WeatherDisplay:10.37,2013-09-27 11:59:00,
2013-09-27 07:04:00,56.3,55.5,30.21,ENE,73,0.0,0.0,97,0.00,CLR,,0.00,WeatherDisplay:10.37,2013-09-27 12:04:00,
2013-09-27 07:09:00,56.5,55.7,30.21,ENE,73,0.0,0.0,97,0.00,CLR,,0.00,WeatherDisplay:10.37,2013-09-27 12:09:00,
2013-09-27 07:14:00,56.5,55.7,30.21,ENE,73,0.0,0.0,97,0.00,CLR,,0.00,WeatherDisplay:10.37,2013-09-27 12:14:00,
2013-09-27 07:19:00,56.6,55.8,30.21,ENE,73,0.0,0.0,97,0.00,CLR,,0.00,WeatherDisplay:10.37,2013-09-27 12:19:00,
2013-09-27 07:24:00,56.9,56.1,30.21,ENE,73,0.0,0.0,97,0.00,CLR,,0.00,WeatherDisplay:10.37,2013-09-27 12:24:00,
2013-09-27 07:29:00,57.2,56.4,30.21,ENE,73,0.0,0.0,97,0.00,CLR,,0.00,WeatherDisplay:10.37,2013-09-27 12:29:00,
2013-09-27 07:34:00,57.8,57.0,30.22,ENE,73,0.0,0.0,97,0.00,CLR,,0.00,WeatherDisplay:10.37,2013-09-27 12:34:00,
2013-09-27 07:39:00,58.6,57.8,30.22,ENE,73,0.0,0.0,97,0.00,CLR,,0.00,WeatherDisplay:10.37,2013-09-27 12:39:00,
2013-09-27 07:44:00,58.7,57.9,30.22,ENE,73,0.0,0.0,97,0.00,CLR,,0.00,WeatherDisplay:10.37,2013-09-27 12:44:00,
2013-09-27 07:49:00,58.7,57.9,30.22,ENE,73,0.0,0.0,97,0.00,CLR,,0.00,WeatherDisplay:10.37,2013-09-27 12:49:00,
2013-09-27 07:54:00,59.3,58.4,30.22,ENE,73,0.0,0.0,97,0.00,CLR,,0.00,WeatherDisplay:10.37,2013-09-27 12:54:00,
2013-09-27 07:59:00,59.6,58.7,30.22,ENE,73,0.0,0.0,97,0.00,CLR,,0.00,WeatherDisplay:10.37,2013-09-27 12:59:00,
2013-09-27 08:04:00,60.1,59.2,30.22,ENE,73,0.0,0.0,97,0.00,CLR,,0.00,WeatherDisplay:10.37,2013-09-27 13:04:00,
2013-09-27 08:09:00,60.7,59.8,30.22,ENE,73,0.0,0.0,97,0.00,CLR,,0.00,WeatherDisplay:10.37,2013-09-27 13:09:00,
2013-09-27 08:14:00,61.5,60.6,30.22,ENE,73,0.0,0.0,97,0.00,CLR,,0.00,WeatherDisplay:10.37,2013-09-27 13:14:00,
2013-09-27 08:19:00,62.1,60.9,30.22,ENE,73,0.0,0.0,96,0.00,CLR,,0.00,WeatherDisplay:10.37,2013-09-27 13:19:00,
2013-09-27 08:24:00,62.6,60.2,30.22,ENE,73,0.0,0.0,92,0.00,CLR,,0.00,WeatherDisplay:10.37,2013-09-27 13:24:00,
2013-09-27 08:29:00,63.4,60.4,30.22,ENE,73,0.0,0.0,90,0.00,CLR,,0.00,WeatherDisplay:10.37,2013-09-27 13:29:00,
2013-09-27 08:34:00,64.5,60.5,30.22,ENE,73,0.0,0.0,87,0.00,CLR,,0.00,WeatherDisplay:10.37,2013-09-27 13:34:00,
2013-09-27 08:39:00,65.5,60.5,30.22,ENE,73,0.0,0.0,84,0.00,CLR,,0.00,WeatherDisplay:10.37,2013-09-27 13:39:00,
2013-09-27 08:44:00,65.6,60.3,30.22,ENE,73,0.0,0.0,83,0.00,CLR,,0.00,WeatherDisplay:10.37,2013-09-27 13:44:00,
2013-09-27 08:49:00,66.1,60.4,30.22,ENE,73,0.0,0.0,82,0.00,CLR,,0.00,WeatherDisplay:10.37,2013-09-27 13:49:00,
2013-09-27 08:54:00,66.6,60.2,30.22,ENE,73,1.1,0.0,80,0.00,CLR,,0.00,WeatherDisplay:10.37,2013-09-27 13:54:00,
2013-09-27 08:59:00,66.8,60.4,30.22,ENE,73,0.0,0.0,80,0.00,CLR,,0.00,WeatherDisplay:10.37,2013-09-27 13:59:00,
2013-09-27 09:04:00,67.1,60.7,30.22,ENE,73,0.0,0.0,80,0.00,CLR,,0.00,WeatherDisplay:10.37,2013-09-27 14:04:00,
2013-09-27 09:09:00,67.3,61.3,30.23,ENE,73,1.1,0.0,81,0.00,CLR,,0.00,WeatherDisplay:10.37,2013-09-27 14:09:00,
2013-09-27 09:14:00,67.9,60.8,30.23,ENE,73,0.0,0.0,78,0.00,CLR,,0.00,WeatherDisplay:10.37,2013-09-27 14:14:00,
2013-09-27 09:19:00,68.1,61.3,30.23,ENE,73,0.0,0.0,79,0.00,CLR,,0.00,WeatherDisplay:10.37,2013-09-27 14:19:00,
2013-09-27 09:24:00,68.6,62.2,30.23,ENE,73,0.0,0.0,80,0.00,CLR,,0.00,WeatherDisplay:10.37,2013-09-27 14:24:00,
2013-09-27 09:29:00,69.1,61.2,30.23,ENE,73,1.1,0.0,76,0.00,CLR,,0.00,WeatherDisplay:10.37,2013-09-27 14:29:00,
2013-09-27 09:34:00,68.6,61.5,30.23,ENE,73,0.0,0.1,78,0.00,CLR,,0.00,WeatherDisplay:10.37,2013-09-27 14:34:00,
2013-09-27 09:39:00,68.6,61.5,30.23,ENE,73,0.0,0.0,78,0.00,CLR,,0.00,WeatherDisplay:10.37,2013-09-27 14:39:00,
2013-09-27 09:44:00,69.3,62.1,30.23,ENE,73,1.1,0.0,78,0.00,CLR,,0.00,WeatherDisplay:10.37,2013-09-27 14:44:00,
2013-09-27 09:49:00,69.9,61.2,30.23,ENE,73,0.0,0.0,74,0.00,CLR,,0.00,WeatherDisplay:10.37,2013-09-27 14:49:00,
2013-09-27 09:54:00,70.4,62.5,30.23,ENE,73,0.0,0.1,76,0.00,CLR,,0.00,WeatherDisplay:10.37,2013-09-27 14:54:00,
2013-09-27 09:59:00,70.9,61.8,30.23,NNE,27,3.5,3.5,73,0.00,CLR,,0.00,WeatherDisplay:10.37,2013-09-27 14:59:00,
2013-09-27 10:04:00,71.5,61.2,30.23,NNE,27,0.0,0.0,70,0.00,CLR,,0.00,WeatherDisplay:10.37,2013-09-27 15:04:00,
2013-09-27 10:09:00,72.0,61.7,30.23,NE,51,1.1,0.0,70,0.00,CLR,,0.00,WeatherDisplay:10.37,2013-09-27 15:09:00,
2013-09-27 10:15:00,72.4,61.7,30.23,NE,51,0.0,0.0,69,0.00,CLR,,0.00,WeatherDisplay:10.37,2013-09-27 15:15:00,
2013-09-27 10:20:00,72.8,62.4,30.23,NE,51,0.0,3.0,70,0.00,CLR,,0.00,WeatherDisplay:10.37,2013-09-27 15:20:00,
2013-09-27 10:25:00,73.0,62.6,30.23,NE,51,0.0,0.0,70,0.00,CLR,,0.00,WeatherDisplay:10.37,2013-09-27 15:25:00,
2013-09-27 10:30:00,73.2,62.4,30.23,NE,51,1.1,0.0,69,0.00,CLR,,0.00,WeatherDisplay:10.37,2013-09-27 15:30:00,
2013-09-27 10:35:00,73.5,61.4,30.23,ENE,58,1.1,1.1,66,0.00,CLR,,0.00,WeatherDisplay:10.37,2013-09-27 15:35:00,
2013-09-27 10:40:00,73.9,61.8,30.23,ENE,58,1.1,0.0,66,0.00,CLR,,0.00,WeatherDisplay:10.37,2013-09-27 15:40:00,
2013-09-27 10:45:00,74.2,62.5,30.23,ENE,63,3.5,0.0,67,0.00,CLR,,0.00,WeatherDisplay:10.37,2013-09-27 15:45:00,
2013-09-27 10:50:00,74.4,63.1,30.23,ENE,63,0.0,0.0,68,0.00,CLR,,0.00,WeatherDisplay:10.37,2013-09-27 15:50:00,
2013-09-27 10:55:00,75.1,62.1,30.23,ENE,63,0.0,0.0,64,0.00,CLR,,0.00,WeatherDisplay:10.37,2013-09-27 15:55:00,
2013-09-27 11:00:00,75.4,61.5,30.22,ENE,63,0.0,0.0,62,0.00,CLR,,0.00,WeatherDisplay:10.37,2013-09-27 16:00:00,
2013-09-27 11:05:00,75.4,61.0,30.22,ENE,63,1.1,0.0,61,0.00,CLR,,0.00,WeatherDisplay:10.37,2013-09-27 16:05:00,
2013-09-27 11:10:00,75.4,59.1,30.22,NE,40,1.1,0.0,57,0.00,CLR,,0.00,WeatherDisplay:10.37,2013-09-27 16:10:00,
2013-09-27 11:15:00,75.3,59.0,30.22,SW,215,0.0,0.0,57,0.00,CLR,,0.00,WeatherDisplay:10.37,2013-09-27 16:15:00,
2013-09-27 11:20:00,75.8,61.4,30.22,NNE,18,0.0,0.0,61,0.00,CLR,,0.00,WeatherDisplay:10.37,2013-09-27 16:20:00,
2013-09-27 11:25:00,76.7,60.8,30.22,NNE,18,0.0,0.0,58,0.00,CLR,,0.00,WeatherDisplay:10.37,2013-09-27 16:25:00,
2013-09-27 11:30:00,77.2,59.8,30.22,NNE,26,0.0,0.0,55,0.00,CLR,,0.00,WeatherDisplay:10.37,2013-09-27 16:30:00,
2013-09-27 11:35:00,77.4,61.5,30.22,SE,141,0.0,0.0,58,0.00,CLR,,0.00,WeatherDisplay:10.37,2013-09-27 16:35:00,
2013-09-27 11:40:00,77.9,60.4,30.22,South,182,1.1,0.0,55,0.00,CLR,,0.00,WeatherDisplay:10.37,2013-09-27 16:40:00,
2013-09-27 11:45:00,78.1,61.6,30.22,South,182,0.0,0.1,57,0.00,CLR,,0.00,WeatherDisplay:10.37,2013-09-27 16:45:00,
2013-09-27 11:50:00,78.5,60.5,30.22,South,182,0.0,0.0,54,0.00,CLR,,0.00,WeatherDisplay:10.37,2013-09-27 16:50:00,
2013-09-27 11:55:00,78.5,59.9,30.22,SSE,153,0.0,0.0,53,0.00,CLR,,0.00,WeatherDisplay:10.37,2013-09-27 16:55:00,
2013-09-27 12:00:00,78.3,60.3,30.22,SSE,149,0.0,0.0,54,0.00,CLR,,0.00,WeatherDisplay:10.37,2013-09-27 17:00:00,
2013-09-27 12:05:00,78.3,60.3,30.21,SE,127,2.3,2.3,54,0.00,CLR,,0.00,WeatherDisplay:10.37,2013-09-27 17:05:00,
2013-09-27 12:10:00,78.3,60.8,30.21,NE,53,4.6,4.6,55,0.00,CLR,,0.00,WeatherDisplay:10.37,2013-09-27 17:10:00,
2013-09-27 12:15:00,78.1,60.1,30.21,SSW,203,0.0,0.0,54,0.00,CLR,,0.00,WeatherDisplay:10.37,2013-09-27 17:15:00,
2013-09-27 12:20:00,78.3,60.3,30.20,WNW,295,0.0,0.0,54,0.00,CLR,,0.00,WeatherDisplay:10.37,2013-09-27 17:20:00,
2013-09-27 12:26:00,78.8,63.3,30.20,NNE,30,1.1,0.0,59,0.00,CLR,,0.00,WeatherDisplay:10.37,2013-09-27 17:26:00,
2013-09-27 12:31:00,79.2,60.1,30.20,NE,55,0.0,0.0,52,0.00,CLR,,0.00,WeatherDisplay:10.37,2013-09-27 17:31:00,
2013-09-27 12:36:00,78.8,60.2,30.20,SW,214,1.1,0.0,53,0.00,CLR,,0.00,WeatherDisplay:10.37,2013-09-27 17:36:00,
2013-09-27 12:41:00,79.2,61.1,30.19,SSE,150,0.0,0.0,54,0.00,CLR,,0.00,WeatherDisplay:10.37,2013-09-27 17:41:00,
2013-09-27 12:46:00,79.0,59.9,30.19,SE,128,3.5,3.5,52,0.00,CLR,,0.00,WeatherDisplay:10.37,2013-09-27 17:46:00,
2013-09-27 12:51:00,78.8,59.7,30.19,SW,221,1.1,0.0,52,0.00,CLR,,0.00,WeatherDisplay:10.37,2013-09-27 17:51:00,
2013-09-27 12:56:00,79.0,59.3,30.19,SSW,206,5.8,5.8,51,0.00,CLR,,0.00,WeatherDisplay:10.37,2013-09-27 17:56:00,
2013-09-27 13:01:00,79.4,60.2,30.18,SW,227,1.1,0.0,52,0.00,CLR,,0.00,WeatherDisplay:10.37,2013-09-27 18:01:00,
2013-09-27 13:06:00,80.1,61.4,30.18,SW,232,0.0,0.0,53,0.00,CLR,,0.00,WeatherDisplay:10.37,2013-09-27 18:06:00,
2013-09-27 13:11:00,80.7,62.0,30.18,WSW,248,0.0,0.0,53,0.00,CLR,,0.00,WeatherDisplay:10.37,2013-09-27 18:11:00,
2013-09-27 13:16:00,81.1,59.6,30.18,SW,215,1.1,0.0,48,0.00,CLR,,0.00,WeatherDisplay:10.37,2013-09-27 18:16:00,
2013-09-27 13:21:00,80.7,59.2,30.17,ESE,115,1.1,1.1,48,0.00,CLR,,0.00,WeatherDisplay:10.37,2013-09-27 18:21:00,
2013-09-27 13:26:00,80.5,59.6,30.17,SSE,148,0.0,0.0,49,0.00,CLR,,0.00,WeatherDisplay:10.37,2013-09-27 18:26:00,
2013-09-27 13:31:00,81.1,61.8,30.17,SE,140,0.0,0.0,52,0.00,CLR,,0.00,WeatherDisplay:10.37,2013-09-27 18:31:00,
2013-09-27 13:36:00,81.4,60.4,30.17,SE,145,0.0,0.0,49,0.00,CLR,,0.00,WeatherDisplay:10.37,2013-09-27 18:36:00,
2013-09-27 13:41:00,81.2,60.8,30.17,SE,142,1.1,0.0,50,0.00,CLR,,0.00,WeatherDisplay:10.37,2013-09-27 18:41:00,
2013-09-27 13:46:00,81.2,60.8,30.17,SSW,213,0.0,0.0,50,0.00,CLR,,0.00,WeatherDisplay:10.37,2013-09-27 18:46:00,
2013-09-27 13:51:00,81.2,60.2,30.16,SW,217,0.0,0.0,49,0.00,CLR,,0.00,WeatherDisplay:10.37,2013-09-27 18:51:00,
2013-09-27 13:56:00,81.2,61.4,30.16,WSW,247,1.1,0.0,51,0.00,CLR,,0.00,WeatherDisplay:10.37,2013-09-27 18:56:00,
2013-09-27 14:01:00,81.4,61.0,30.16,SW,220,0.0,0.0,50,0.00,CLR,,0.00,WeatherDisplay:10.37,2013-09-27 19:01:00,
2013-09-27 14:06:00,81.2,60.2,30.16,SSW,196,0.0,0.0,49,0.00,CLR,,0.00,WeatherDisplay:10.37,2013-09-27 19:06:00,
2013-09-27 14:11:00,81.6,60.6,30.16,SSW,196,1.1,0.0,49,0.00,CLR,,0.00,WeatherDisplay:10.37,2013-09-27 19:11:00,
2013-09-27 14:16:00,81.2,59.6,30.16,SW,225,3.5,3.5,48,0.00,CLR,,0.00,WeatherDisplay:10.37,2013-09-27 19:16:00,
2013-09-27 14:21:00,81.1,57.1,30.16,East,96,1.1,1.1,44,0.00,CLR,,0.00,WeatherDisplay:10.37,2013-09-27 19:21:00,
2013-09-27 14:26:00,81.2,59.1,30.15,East,96,0.0,0.0,47,0.00,CLR,,0.00,WeatherDisplay:10.37,2013-09-27 19:26:00,
2013-09-27 14:31:00,81.4,58.6,30.15,ESE,113,1.1,1.1,46,0.00,CLR,,0.00,WeatherDisplay:10.37,2013-09-27 19:31:00,
2013-09-27 14:36:00,80.9,58.2,30.15,SE,138,1.1,0.0,46,0.00,CLR,,0.00,WeatherDisplay:10.37,2013-09-27 19:36:00,
2013-09-27 14:41:00,80.9,57.6,30.15,South,173,0.0,0.0,45,0.00,CLR,,0.00,WeatherDisplay:10.37,2013-09-27 19:41:00,
2013-09-27 14:46:00,81.4,58.0,30.14,NNW,346,0.0,0.0,45,0.00,CLR,,0.00,WeatherDisplay:10.37,2013-09-27 19:46:00,
2013-09-27 14:51:00,82.0,58.6,30.14,NNW,344,1.0,0.0,45,0.00,CLR,,0.00,WeatherDisplay:10.37,2013-09-27 19:51:00,
2013-09-27 14:56:00,82.6,60.3,30.14,NNW,344,1.1,0.0,47,0.00,CLR,,0.00,WeatherDisplay:10.37,2013-09-27 19:56:00,
2013-09-27 15:01:00,83.0,58.2,30.14,NNW,344,0.0,0.0,43,0.00,CLR,,0.00,WeatherDisplay:10.37,2013-09-27 20:01:00,
2013-09-27 15:06:00,83.4,58.6,30.14,NNW,344,0.0,0.0,43,0.00,CLR,,0.00,WeatherDisplay:10.37,2013-09-27 20:06:00,
2013-09-27 15:11:00,83.4,58.6,30.14,ESE,105,1.1,1.1,43,0.00,CLR,,0.00,WeatherDisplay:10.37,2013-09-27 20:11:00,
2013-09-27 15:16:00,83.0,58.2,30.14,ESE,105,0.0,0.0,43,0.00,CLR,,0.00,WeatherDisplay:10.37,2013-09-27 20:16:00,
2013-09-27 15:21:00,83.0,57.5,30.14,ESE,105,0.0,0.0,42,0.00,CLR,,0.00,WeatherDisplay:10.37,2013-09-27 20:21:00,
2013-09-27 15:26:00,82.6,57.8,30.14,East,101,1.1,0.0,43,0.00,CLR,,0.00,WeatherDisplay:10.37,2013-09-27 20:26:00,
2013-09-27 15:31:00,82.2,56.2,30.14,NE,53,3.5,3.5,41,0.00,CLR,,0.00,WeatherDisplay:10.37,2013-09-27 20:31:00,
2013-09-27 15:36:00,81.2,57.2,30.14,NE,53,1.1,0.0,44,0.00,CLR,,0.00,WeatherDisplay:10.37,2013-09-27 20:36:00,
2013-09-27 15:41:00,81.1,57.7,30.14,NE,53,1.1,0.0,45,0.00,CLR,,0.00,WeatherDisplay:10.37,2013-09-27 20:41:00,
2013-09-27 15:46:00,81.1,59.0,30.14,NE,53,0.0,0.1,47,0.00,CLR,,0.00,WeatherDisplay:10.37,2013-09-27 20:46:00,
2013-09-27 15:51:00,80.7,58.0,30.14,NE,55,1.1,0.0,46,0.00,CLR,,0.00,WeatherDisplay:10.37,2013-09-27 20:51:00,
2013-09-27 15:56:00,80.5,58.4,30.13,NE,51,1.1,0.0,47,0.00,CLR,,0.00,WeatherDisplay:10.37,2013-09-27 20:56:00,
2013-09-27 16:01:00,80.3,56.4,30.13,NE,51,0.0,0.1,44,0.00,CLR,,0.00,WeatherDisplay:10.37,2013-09-27 21:01:00,
2013-09-27 16:06:00,80.1,57.5,30.13,NE,51,1.1,0.0,46,0.00,CLR,,0.00,WeatherDisplay:10.37,2013-09-27 21:06:00,
2013-09-27 16:11:00,79.9,56.7,30.13,NE,51,0.0,0.0,45,0.00,CLR,,0.00,WeatherDisplay:10.37,2013-09-27 21:11:00,
2013-09-27 16:16:00,79.8,57.2,30.13,NE,51,1.1,0.0,46,0.00,CLR,,0.00,WeatherDisplay:10.37,2013-09-27 21:16:00,
2013-09-27 16:21:00,79.6,55.8,30.13,NE,51,0.0,0.0,44,0.00,CLR,,0.00,WeatherDisplay:10.37,2013-09-27 21:21:00,
2013-09-27 16:26:00,79.6,57.6,30.13,NE,51,1.1,0.0,47,0.00,CLR,,0.00,WeatherDisplay:10.37,2013-09-27 21:26:00,
2013-09-27 16:31:00,79.6,57.0,30.13,NE,50,0.0,0.0,46,0.00,CLR,,0.00,WeatherDisplay:10.37,2013-09-27 21:31:00,
2013-09-27 16:36:00,79.4,56.8,30.13,NE,50,0.0,0.0,46,0.00,CLR,,0.00,WeatherDisplay:10.37,2013-09-27 21:36:00,
2013-09-27 16:41:00,79.0,56.5,30.13,NE,50,0.0,0.0,46,0.00,CLR,,0.00,WeatherDisplay:10.37,2013-09-27 21:41:00,
2013-09-27 16:46:00,78.8,56.3,30.13,NE,50,0.0,0.0,46,0.00,CLR,,0.00,WeatherDisplay:10.37,2013-09-27 21:46:00,
2013-09-27 16:51:00,78.6,57.3,30.14,NE,50,0.0,0.0,48,0.00,CLR,,0.00,WeatherDisplay:10.37,2013-09-27 21:51:00,
2013-09-27 16:56:00,78.5,62.5,30.14,NE,50,0.0,0.0,58,0.00,CLR,,0.00,WeatherDisplay:10.37,2013-09-27 21:56:00,
2013-09-27 17:01:00,77.6,62.6,30.14,NE,50,1.1,0.0,60,0.00,CLR,,0.00,WeatherDisplay:10.37,2013-09-27 22:01:00,
2013-09-27 17:06:00,76.7,62.2,30.14,NE,50,0.0,0.0,61,0.00,CLR,,0.00,WeatherDisplay:10.37,2013-09-27 22:06:00,
2013-09-27 17:11:00,76.0,62.9,30.14,NE,50,0.0,0.0,64,0.00,CLR,,0.00,WeatherDisplay:10.37,2013-09-27 22:11:00,
2013-09-27 17:16:00,75.3,62.7,30.14,NE,50,0.0,0.0,65,0.00,CLR,,0.00,WeatherDisplay:10.37,2013-09-27 22:16:00,
2013-09-27 17:21:00,74.7,62.6,30.14,NE,50,0.0,0.0,66,0.00,CLR,,0.00,WeatherDisplay:10.37,2013-09-27 22:21:00,
2013-09-27 17:26:00,74.2,62.5,30.15,NE,50,0.0,0.0,67,0.00,CLR,,0.00,WeatherDisplay:10.37,2013-09-27 22:26:00,
2013-09-27 17:31:00,73.7,62.5,30.14,NE,50,0.0,0.0,68,0.00,CLR,,0.00,WeatherDisplay:10.37,2013-09-27 22:31:00,
2013-09-27 17:36:00,73.2,62.4,30.14,NE,50,0.0,0.0,69,0.00,CLR,,0.00,WeatherDisplay:10.37,2013-09-27 22:36:00,
2013-09-27 17:41:00,72.7,62.3,30.14,NE,50,0.0,0.0,70,0.00,CLR,,0.00,WeatherDisplay:10.37,2013-09-27 22:41:00,
2013-09-27 17:46:00,72.1,62.2,30.15,NE,50,0.0,0.0,71,0.00,CLR,,0.00,WeatherDisplay:10.37,2013-09-27 22:46:00,
2013-09-27 17:51:00,71.5,62.4,30.15,NE,50,0.0,0.0,73,0.00,CLR,,0.00,WeatherDisplay:10.37,2013-09-27 22:51:00,
2013-09-27 17:56:00,70.9,62.2,30.15,NE,50,0.0,0.0,74,0.00,CLR,,0.00,WeatherDisplay:10.37,2013-09-27 22:56:00,
2013-09-27 18:01:00,70.4,62.1,30.15,NE,50,0.0,0.0,75,0.00,CLR,,0.00,WeatherDisplay:10.37,2013-09-27 23:01:00,
2013-09-27 18:06:00,69.9,62.0,30.15,NE,50,0.0,0.0,76,0.00,CLR,,0.00,WeatherDisplay:10.37,2013-09-27 23:06:00,
2013-09-27 18:11:00,69.4,61.9,30.15,NE,50,0.0,0.0,77,0.00,CLR,,0.00,WeatherDisplay:10.37,2013-09-27 23:11:00,
2013-09-27 18:16:00,69.1,61.9,30.15,NE,50,0.0,0.0,78,0.00,CLR,,0.00,WeatherDisplay:10.37,2013-09-27 23:16:00,
2013-09-27 18:21:00,68.8,62.0,30.15,NE,50,0.0,0.0,79,0.00,CLR,,0.00,WeatherDisplay:10.37,2013-09-27 23:21:00,
2013-09-27 18:26:00,68.4,62.0,30.15,NE,50,0.0,0.0,80,0.00,CLR,,0.00,WeatherDisplay:10.37,2013-09-27 23:26:00,
2013-09-27 18:31:00,67.9,61.5,30.15,NE,50,0.0,0.0,80,0.00,CLR,,0.00,WeatherDisplay:10.37,2013-09-27 23:31:00,
2013-09-27 18:36:00,67.6,61.2,30.15,NE,50,0.0,0.0,80,0.00,CLR,,0.00,WeatherDisplay:10.37,2013-09-27 23:36:00,
2013-09-27 18:41:00,67.3,62.0,30.15,NE,50,0.0,0.0,83,0.00,CLR,,0.00,WeatherDisplay:10.37,2013-09-27 23:41:00,
2013-09-27 18:46:00,66.9,61.9,30.15,NE,50,0.0,0.0,84,0.00,CLR,,0.00,WeatherDisplay:10.37,2013-09-27 23:46:00,
2013-09-27 18:51:00,66.4,61.4,30.15,NE,50,0.0,0.0,84,0.00,CLR,,0.00,WeatherDisplay:10.37,2013-09-27 23:51:00,
2013-09-27 18:56:00,66.1,61.5,30.15,NE,50,0.0,0.0,85,0.00,CLR,,0.00,WeatherDisplay:10.37,2013-09-27 23:56:00,
2013-09-27 19:01:00,65.8,61.5,30.15,NE,50,0.0,0.0,86,0.00,CLR,,0.00,WeatherDisplay:10.37,2013-09-28 00:01:00,
2013-09-27 19:06:00,65.5,61.5,30.15,NE,50,0.0,0.0,87,0.00,CLR,,0.00,WeatherDisplay:10.37,2013-09-28 00:06:00,
2013-09-27 19:11:00,65.2,61.6,30.15,NE,50,0.0,0.0,88,0.00,CLR,,0.00,WeatherDisplay:10.37,2013-09-28 00:11:00,
2013-09-27 19:16:00,64.8,61.5,30.15,NE,50,0.0,0.0,89,0.00,CLR,,0.00,WeatherDisplay:10.37,2013-09-28 00:16:00,
2013-09-27 19:21:00,64.7,61.4,30.16,NE,50,0.0,0.0,89,0.00,CLR,,0.00,WeatherDisplay:10.37,2013-09-28 00:21:00,
2013-09-27 19:26:00,64.3,61.0,30.16,NE,50,0.0,0.0,89,0.00,CLR,,0.00,WeatherDisplay:10.37,2013-09-28 00:26:00,
2013-09-27 19:31:00,64.2,60.9,30.16,NE,50,0.0,0.0,89,0.00,CLR,,0.00,WeatherDisplay:10.37,2013-09-28 00:31:00,
2013-09-27 19:36:00,64.0,60.7,30.16,NE,50,0.0,0.0,89,0.00,CLR,,0.00,WeatherDisplay:10.37,2013-09-28 00:36:00,
2013-09-27 19:41:00,63.9,60.6,30.16,NE,50,0.0,0.0,89,0.00,CLR,,0.00,WeatherDisplay:10.37,2013-09-28 00:41:00,
2013-09-27 19:46:00,63.7,60.7,30.17,NE,50,0.0,0.0,90,0.00,CLR,,0.00,WeatherDisplay:10.37,2013-09-28 00:46:00,
2013-09-27 19:51:00,63.5,60.5,30.17,NE,50,0.0,0.0,90,0.00,CLR,,0.00,WeatherDisplay:10.37,2013-09-28 00:51:00,
2013-09-27 19:56:00,63.4,60.4,30.17,NE,50,0.0,0.0,90,0.00,CLR,,0.00,WeatherDisplay:10.37,2013-09-28 00:56:00,
2013-09-27 20:01:00,63.2,60.2,30.17,NE,50,0.0,0.0,90,0.00,CLR,,0.00,WeatherDisplay:10.37,2013-09-28 01:01:00,
2013-09-27 20:07:00,63.1,60.4,30.17,NE,50,0.0,0.0,91,0.00,CLR,,0.00,WeatherDisplay:10.37,2013-09-28 01:07:00,
2013-09-27 20:12:00,62.9,60.2,30.17,NE,50,0.0,0.0,91,0.00,CLR,,0.00,WeatherDisplay:10.37,2013-09-28 01:12:00,
2013-09-27 20:17:00,62.7,60.0,30.17,NE,50,0.0,0.0,91,0.00,CLR,,0.00,WeatherDisplay:10.37,2013-09-28 01:17:00,
2013-09-27 20:22:00,62.6,59.9,30.17,NE,50,0.0,0.0,91,0.00,CLR,,0.00,WeatherDisplay:10.37,2013-09-28 01:22:00,
2013-09-27 20:27:00,62.4,59.7,30.17,NE,50,0.0,0.0,91,0.00,CLR,,0.00,WeatherDisplay:10.37,2013-09-28 01:27:00,
2013-09-27 20:32:00,62.3,59.6,30.18,NE,50,0.0,0.0,91,0.00,CLR,,0.00,WeatherDisplay:10.37,2013-09-28 01:32:00,
2013-09-27 20:37:00,62.1,59.7,30.18,NE,50,0.0,0.0,92,0.00,CLR,,0.00,WeatherDisplay:10.37,2013-09-28 01:37:00,
2013-09-27 20:42:00,62.1,59.7,30.18,NE,50,0.0,0.0,92,0.00,CLR,,0.00,WeatherDisplay:10.37,2013-09-28 01:42:00,
2013-09-27 20:47:00,62.0,59.6,30.18,NE,50,0.0,0.0,92,0.00,CLR,,0.00,WeatherDisplay:10.37,2013-09-28 01:47:00,
2013-09-27 20:52:00,61.8,59.5,30.18,NE,50,0.0,0.0,92,0.00,CLR,,0.00,WeatherDisplay:10.37,2013-09-28 01:52:00,
2013-09-27 20:57:00,61.6,59.3,30.18,NE,50,0.0,0.0,92,0.00,CLR,,0.00,WeatherDisplay:10.37,2013-09-28 01:57:00,
2013-09-27 21:02:00,61.5,59.2,30.18,NE,50,0.0,0.0,92,0.00,CLR,,0.00,WeatherDisplay:10.37,2013-09-28 02:02:00,
2013-09-27 21:07:00,61.5,59.5,30.18,NE,50,0.0,0.0,93,0.00,CLR,,0.00,WeatherDisplay:10.37,2013-09-28 02:07:00,
2013-09-27 21:12:00,61.3,59.3,30.19,NE,50,0.0,0.0,93,0.00,CLR,,0.00,WeatherDisplay:10.37,2013-09-28 02:12:00,
2013-09-27 21:17:00,61.3,59.3,30.19,NE,50,0.0,0.0,93,0.00,CLR,,0.00,WeatherDisplay:10.37,2013-09-28 02:17:00,
2013-09-27 21:22:00,61.2,59.2,30.19,NE,50,0.0,0.0,93,0.00,CLR,,0.00,WeatherDisplay:10.37,2013-09-28 02:22:00,
2013-09-27 21:27:00,61.2,59.2,30.19,NE,50,0.0,0.0,93,0.00,CLR,,0.00,WeatherDisplay:10.37,2013-09-28 02:27:00,
2013-09-27 21:32:00,61.0,59.3,30.19,NE,50,0.0,0.0,94,0.00,CLR,,0.00,WeatherDisplay:10.37,2013-09-28 02:32:00,
2013-09-27 21:37:00,60.9,59.2,30.19,NE,50,0.0,0.0,94,0.00,CLR,,0.00,WeatherDisplay:10.37,2013-09-28 02:37:00,
2013-09-27 21:42:00,60.9,59.2,30.19,NE,50,0.0,0.0,94,0.00,CLR,,0.00,WeatherDisplay:10.37,2013-09-28 02:42:00,
2013-09-27 21:47:00,60.7,59.0,30.19,NE,50,0.0,0.0,94,0.00,CLR,,0.00,WeatherDisplay:10.37,2013-09-28 02:47:00,
2013-09-27 21:52:00,60.5,58.8,30.19,NE,50,0.0,0.0,94,0.00,CLR,,0.00,WeatherDisplay:10.37,2013-09-28 02:52:00,
2013-09-27 21:57:00,60.4,58.7,30.19,NE,50,0.0,0.0,94,0.00,CLR,,0.00,WeatherDisplay:10.37,2013-09-28 02:57:00,
2013-09-27 22:02:00,60.4,58.7,30.19,NE,50,0.0,0.0,94,0.00,CLR,,0.00,WeatherDisplay:10.37,2013-09-28 03:02:00,
2013-09-27 22:07:00,60.2,58.5,30.19,NE,50,0.0,0.0,94,0.00,CLR,,0.00,WeatherDisplay:10.37,2013-09-28 03:07:00,
2013-09-27 22:12:00,60.2,58.5,30.20,NE,50,0.0,0.0,94,0.00,CLR,,0.00,WeatherDisplay:10.37,2013-09-28 03:12:00,
2013-09-27 22:17:00,60.1,58.4,30.20,NE,50,0.0,0.0,94,0.00,CLR,,0.00,WeatherDisplay:10.37,2013-09-28 03:17:00,
2013-09-27 22:22:00,60.1,58.4,30.20,NE,50,0.0,0.0,94,0.00,CLR,,0.00,WeatherDisplay:10.37,2013-09-28 03:22:00,
2013-09-27 22:27:00,59.9,58.5,30.20,NE,50,0.0,0.0,95,0.00,CLR,,0.00,WeatherDisplay:10.37,2013-09-28 03:27:00,
2013-09-27 22:32:00,59.9,58.5,30.20,NE,50,0.0,0.0,95,0.00,CLR,,0.00,WeatherDisplay:10.37,2013-09-28 03:32:00,
2013-09-27 22:37:00,59.9,58.5,30.20,NE,50,0.0,0.0,95,0.00,CLR,,0.00,WeatherDisplay:10.37,2013-09-28 03:37:00,
2013-09-27 22:42:00,59.8,58.4,30.20,NE,50,0.0,0.0,95,0.00,CLR,,0.00,WeatherDisplay:10.37,2013-09-28 03:42:00,
2013-09-27 22:47:00,59.8,58.4,30.20,NE,50,0.0,0.0,95,0.00,CLR,,0.00,WeatherDisplay:10.37,2013-09-28 03:47:00,
2013-09-27 22:52:00,59.6,58.2,30.20,NE,50,0.0,0.0,95,0.00,CLR,,0.00,WeatherDisplay:10.37,2013-09-28 03:52:00,
2013-09-27 22:57:00,59.6,58.2,30.20,NE,50,0.0,0.0,95,0.00,CLR,,0.00,WeatherDisplay:10.37,2013-09-28 03:57:00,
2013-09-27 23:01:00,59.5,58.1,30.20,NE,50,0.0,0.0,95,0.00,CLR,,0.00,WeatherDisplay:10.37,2013-09-28 04:01:00,
2013-09-27 23:02:00,59.5,58.1,30.20,NE,50,0.0,0.0,95,0.00,CLR,,0.00,WeatherDisplay:10.37,2013-09-28 04:02:00,
2013-09-27 23:07:00,59.3,57.9,30.20,NE,50,0.0,0.0,95,0.00,CLR,,0.00,WeatherDisplay:10.37,2013-09-28 04:07:00,
2013-09-27 23:12:00,59.2,57.8,30.20,NE,50,0.0,0.0,95,0.00,CLR,,0.00,WeatherDisplay:10.37,2013-09-28 04:12:00,
2013-09-27 23:17:00,59.2,57.8,30.20,NE,50,0.0,0.0,95,0.00,CLR,,0.00,WeatherDisplay:10.37,2013-09-28 04:17:00,
2013-09-27 23:22:00,59.0,57.6,30.20,NE,50,0.0,0.0,95,0.00,CLR,,0.00,WeatherDisplay:10.37,2013-09-28 04:22:00,
2013-09-27 23:27:00,59.0,57.6,30.20,NE,50,0.0,0.0,95,0.00,CLR,,0.00,WeatherDisplay:10.37,2013-09-28 04:27:00,
2013-09-27 23:32:00,58.9,57.5,30.20,NE,50,0.0,0.0,95,0.00,CLR,,0.00,WeatherDisplay:10.37,2013-09-28 04:32:00,
2013-09-27 23:37:00,58.9,57.5,30.20,NE,50,0.0,0.0,95,0.00,CLR,,0.00,WeatherDisplay:10.37,2013-09-28 04:37:00,
2013-09-27 23:42:00,59.0,57.6,30.20,NE,50,0.0,0.0,95,0.00,CLR,,0.00,WeatherDisplay:10.37,2013-09-28 04:42:00,
2013-09-27 23:47:00,59.0,57.9,30.20,NE,50,0.0,0.0,96,0.00,CLR,,0.00,WeatherDisplay:10.37,2013-09-28 04:47:00,
2013-09-27 23:52:00,59.0,57.9,30.21,NE,50,0.0,0.0,96,0.00,CLR,,0.00,WeatherDisplay:10.37,2013-09-28 04:52:00,
2013-09-27 23:57:00,59.0,57.9,30.20,NE,50,0.0,0.0,96,0.00,CLR,,0.00,WeatherDisplay:10.37,2013-09-28 04:57:00,